createdAt,value
2017-04-20T00:00:37.943Z,14.48
2017-04-20T00:01:37.422Z,14.13
2017-04-20T00:02:36.851Z,14.48
2017-04-20T00:03:36.270Z,13.83
2017-04-20T00:04:35.786Z,14.55
2017-04-20T00:05:35.224Z,14.43
2017-04-20T00:06:34.666Z,14.85
2017-04-20T00:07:34.143Z,13.88
2017-04-20T00:08:33.566Z,13.58
2017-04-20T00:09:32.995Z,12.25
2017-04-20T00:10:32.439Z,13.37
2017-04-20T00:11:32.165Z,13.00
2017-04-20T00:12:32.171Z,14.93
2017-04-20T00:13:31.667Z,13.27
2017-04-20T00:14:31.094Z,14.10
2017-04-20T00:15:30.562Z,14.47
2017-04-20T00:16:29.998Z,14.48
2017-04-20T00:17:29.457Z,13.87
2017-04-20T00:18:28.902Z,13.47
2017-04-20T00:19:28.333Z,14.72
2017-04-20T00:20:27.755Z,14.87
2017-04-20T00:21:27.242Z,14.18
2017-04-20T00:22:26.672Z,13.25
2017-04-20T00:23:26.310Z,14.00
2017-04-20T00:24:25.734Z,14.08
2017-04-20T00:25:25.164Z,15.13
2017-04-20T00:26:24.762Z,14.70
2017-04-20T00:27:24.186Z,14.02
2017-04-20T00:28:23.654Z,14.17
2017-04-20T00:29:23.135Z,13.10
2017-04-20T00:30:22.578Z,14.40
2017-04-20T00:31:22.035Z,13.95
2017-04-20T00:32:21.530Z,14.47
2017-04-20T00:33:20.964Z,14.00
2017-04-20T00:34:20.419Z,14.63
2017-04-20T00:35:20.048Z,15.78
2017-04-20T00:36:19.475Z,13.87
2017-04-20T00:37:18.903Z,14.70
2017-04-20T00:38:18.322Z,14.70
2017-04-20T00:39:17.750Z,15.08
2017-04-20T00:40:17.214Z,14.77
2017-04-20T00:41:16.718Z,14.75
2017-04-20T00:42:16.154Z,14.45
2017-04-20T00:43:15.574Z,14.62
2017-04-20T00:44:15.006Z,12.90
2017-04-20T00:45:14.439Z,15.35
2017-04-20T00:46:13.883Z,15.15
2017-04-20T00:47:13.487Z,14.32
2017-04-20T00:48:12.994Z,14.53
2017-04-20T00:49:12.431Z,14.37
2017-04-20T00:50:11.878Z,14.38
2017-04-20T00:51:11.310Z,14.60
2017-04-20T00:52:10.744Z,13.95
2017-04-20T00:53:10.226Z,16.30
2017-04-20T00:54:09.663Z,14.07
2017-04-20T00:55:09.126Z,13.95
2017-04-20T00:56:08.594Z,16.20
2017-04-20T00:57:08.014Z,16.02
2017-04-20T00:58:07.434Z,15.73
2017-04-20T00:59:06.912Z,13.98
2017-04-20T01:00:06.359Z,14.75
2017-04-20T01:01:05.778Z,14.47
2017-04-20T01:02:05.190Z,15.68
2017-04-20T01:03:04.598Z,14.63
2017-04-20T01:04:04.139Z,14.32
2017-04-20T01:05:03.627Z,14.98
2017-04-20T01:06:03.134Z,15.97
2017-04-20T01:07:02.566Z,15.85
2017-04-20T01:08:01.987Z,15.87
2017-04-20T01:09:01.411Z,16.27
2017-04-20T01:10:00.915Z,15.03
2017-04-20T01:11:00.391Z,14.17
2017-04-20T01:11:59.818Z,16.20
2017-04-20T01:12:59.238Z,17.83
2017-04-20T01:13:58.704Z,15.53
2017-04-20T01:14:58.142Z,16.02
2017-04-20T01:15:57.579Z,15.87
2017-04-20T01:16:57.054Z,15.12
2017-04-20T01:17:56.482Z,14.43
2017-04-20T01:18:55.908Z,15.95
2017-04-20T01:19:55.343Z,14.65
2017-04-20T01:20:54.771Z,15.85
2017-04-20T01:21:54.198Z,15.65
2017-04-20T01:22:53.642Z,15.40
2017-04-20T01:23:53.062Z,15.53
2017-04-20T01:24:52.502Z,15.88
2017-04-20T01:25:51.923Z,15.65
2017-04-20T01:26:51.408Z,15.42
2017-04-20T01:27:50.835Z,15.57
2017-04-20T01:28:50.310Z,15.77
2017-04-20T01:29:49.790Z,17.53
2017-04-20T01:30:49.269Z,15.68
2017-04-20T01:31:49.004Z,15.38
2017-04-20T01:32:48.422Z,15.78
2017-04-20T01:33:47.850Z,16.42
2017-04-20T01:34:47.336Z,15.03
2017-04-20T01:35:46.780Z,15.55
2017-04-20T01:36:46.211Z,15.00
2017-04-20T01:37:45.635Z,17.82
2017-04-20T01:38:45.171Z,14.88
2017-04-20T01:39:44.622Z,16.53
2017-04-20T01:40:44.254Z,16.68
2017-04-20T01:41:43.687Z,15.60
2017-04-20T01:42:43.115Z,15.68
2017-04-20T01:43:42.550Z,16.27
2017-04-20T01:44:41.995Z,16.95
2017-04-20T01:45:41.434Z,17.37
2017-04-20T01:46:41.022Z,15.40
2017-04-20T01:47:40.459Z,15.33
2017-04-20T01:48:39.903Z,14.42
2017-04-20T01:49:39.335Z,16.78
2017-04-20T01:50:38.768Z,16.12
2017-04-20T01:51:38.202Z,16.82
2017-04-20T01:52:37.655Z,15.85
2017-04-20T01:53:37.066Z,15.68
2017-04-20T01:54:36.473Z,15.73
2017-04-20T01:55:35.909Z,16.50
2017-04-20T01:56:35.318Z,17.37
2017-04-20T01:57:34.729Z,15.13
2017-04-20T01:58:34.145Z,16.88
2017-04-20T01:59:33.558Z,15.45
2017-04-20T02:00:32.982Z,15.88
2017-04-20T02:01:32.425Z,17.37
2017-04-20T02:02:31.830Z,16.78
2017-04-20T02:03:31.373Z,15.25
2017-04-20T02:04:30.794Z,15.77
2017-04-20T02:05:30.229Z,15.58
2017-04-20T02:06:29.641Z,15.13
2017-04-20T02:07:29.056Z,15.90
2017-04-20T02:08:28.473Z,15.77
2017-04-20T02:09:27.873Z,14.90
2017-04-20T02:10:27.278Z,18.33
2017-04-20T02:11:26.770Z,15.30
2017-04-20T02:12:26.186Z,15.52
2017-04-20T02:13:25.593Z,15.97
2017-04-20T02:14:25.002Z,15.87
2017-04-20T02:15:24.405Z,15.28
2017-04-20T02:16:23.845Z,16.28
2017-04-20T02:17:23.289Z,15.40
2017-04-20T02:18:22.689Z,16.43
2017-04-20T02:19:22.146Z,15.95
2017-04-20T02:20:21.546Z,18.08
2017-04-20T02:21:20.955Z,15.53
2017-04-20T02:22:20.361Z,17.02
2017-04-20T02:23:20.786Z,16.60
2017-04-20T02:24:20.237Z,17.35
2017-04-20T02:25:19.662Z,15.97
2017-04-20T02:26:19.074Z,16.40
2017-04-20T02:27:18.481Z,16.08
2017-04-20T02:28:17.886Z,17.53
2017-04-20T02:29:17.330Z,15.75
2017-04-20T02:30:16.741Z,15.97
2017-04-20T02:31:16.157Z,15.48
2017-04-20T02:32:15.557Z,16.52
2017-04-20T02:33:14.962Z,15.83
2017-04-20T02:34:14.378Z,17.33
2017-04-20T02:35:13.817Z,16.92
2017-04-20T02:36:13.217Z,16.38
2017-04-20T02:37:12.657Z,17.58
2017-04-20T02:38:12.074Z,17.12
2017-04-20T02:39:11.478Z,16.07
2017-04-20T02:40:10.889Z,16.90
2017-04-20T02:41:10.373Z,17.43
2017-04-20T02:42:09.788Z,18.70
2017-04-20T02:43:09.557Z,16.30
2017-04-20T02:44:08.982Z,18.40
2017-04-20T02:45:08.390Z,20.33
2017-04-20T02:46:07.789Z,17.10
2017-04-20T02:47:07.202Z,16.80
2017-04-20T02:48:06.609Z,17.02
2017-04-20T02:49:06.065Z,18.28
2017-04-20T02:50:05.476Z,19.65
2017-04-20T02:51:04.877Z,16.92
2017-04-20T02:52:04.325Z,16.70
2017-04-20T02:53:03.761Z,18.17
2017-04-20T02:54:03.165Z,17.08
2017-04-20T02:55:02.626Z,17.52
2017-04-20T02:56:02.029Z,18.62
2017-04-20T02:57:01.437Z,17.12
2017-04-20T02:58:00.838Z,18.85
2017-04-20T02:59:00.246Z,17.43
2017-04-20T02:59:59.654Z,17.98
2017-04-20T03:00:59.097Z,17.15
2017-04-20T03:01:58.502Z,16.72
2017-04-20T03:02:57.949Z,17.65
2017-04-20T03:03:57.380Z,16.35
2017-04-20T03:04:56.786Z,16.32
2017-04-20T03:05:56.305Z,17.52
2017-04-20T03:06:55.841Z,18.20
2017-04-20T03:07:55.246Z,16.22
2017-04-20T03:08:54.926Z,16.45
2017-04-20T03:09:54.337Z,16.03
2017-04-20T03:10:53.749Z,15.82
2017-04-20T03:11:53.157Z,18.17
2017-04-20T03:12:52.573Z,16.22
2017-04-20T03:14:59.352Z,17.38
2017-04-20T03:15:58.497Z,17.05
2017-04-20T03:16:57.644Z,16.48
2017-04-20T03:17:57.522Z,17.50
2017-04-20T03:18:56.661Z,16.93
2017-04-20T03:19:55.787Z,16.75
2017-04-20T03:20:54.933Z,17.40
2017-04-20T03:21:54.058Z,20.55
2017-04-20T03:22:53.170Z,19.22
2017-04-20T03:23:52.290Z,17.28
2017-04-20T03:24:51.422Z,19.54
2017-04-20T03:25:50.534Z,18.35
2017-04-20T03:26:49.650Z,19.87
2017-04-20T03:27:48.769Z,18.22
2017-04-20T03:28:48.332Z,16.03
2017-04-20T03:29:47.654Z,18.65
2017-04-20T03:30:46.778Z,18.40
2017-04-20T03:31:45.921Z,16.75
2017-04-20T03:32:45.027Z,16.48
2017-04-20T03:33:44.145Z,17.28
2017-04-20T03:34:43.254Z,18.57
2017-04-20T03:35:42.397Z,16.58
2017-04-20T03:36:41.538Z,17.88
2017-04-20T03:37:40.642Z,17.67
2017-04-20T03:38:39.756Z,18.52
2017-04-20T03:39:38.857Z,17.45
2017-04-20T03:40:39.126Z,18.22
2017-04-20T03:41:38.282Z,17.83
2017-04-20T03:42:37.382Z,17.77
2017-04-20T03:43:36.503Z,17.33
2017-04-20T03:44:35.610Z,17.40
2017-04-20T03:45:35.453Z,17.45
2017-04-20T03:46:34.561Z,17.92
2017-04-20T03:47:33.711Z,16.92
2017-04-20T03:48:33.110Z,18.15
2017-04-20T03:49:32.219Z,15.88
2017-04-20T03:50:31.333Z,17.30
2017-04-20T03:51:30.469Z,18.58
2017-04-20T03:52:29.574Z,18.23
2017-04-20T03:53:28.869Z,18.00
2017-04-20T03:54:27.971Z,18.75
2017-04-20T03:55:27.082Z,16.52
2017-04-20T03:56:26.193Z,18.32
2017-04-20T03:57:25.286Z,18.53
2017-04-20T03:58:24.406Z,17.43
2017-04-20T03:59:23.542Z,22.00
2017-04-20T04:00:23.508Z,19.08
2017-04-20T04:01:22.611Z,17.87
2017-04-20T04:02:21.746Z,18.27
2017-04-20T04:03:20.846Z,17.92
2017-04-20T04:04:19.966Z,18.77
2017-04-20T04:05:19.057Z,17.62
2017-04-20T04:06:18.621Z,18.75
2017-04-20T04:07:17.718Z,17.68
2017-04-20T04:08:16.837Z,18.73
2017-04-20T04:09:15.933Z,17.58
2017-04-20T04:10:15.058Z,16.67
2017-04-20T04:11:14.150Z,17.23
2017-04-20T04:12:13.279Z,18.13
2017-04-20T04:13:12.379Z,18.70
2017-04-20T04:14:11.474Z,16.80
2017-04-20T04:15:10.602Z,18.45
2017-04-20T04:16:09.706Z,17.78
2017-04-20T04:17:17.322Z,17.97
2017-04-20T04:18:17.190Z,18.30
2017-04-20T04:19:16.630Z,18.98
2017-04-20T04:20:15.730Z,17.47
2017-04-20T04:21:14.838Z,19.47
2017-04-20T04:22:13.953Z,20.12
2017-04-20T04:23:13.094Z,27.22
2017-04-20T04:24:12.201Z,17.58
2017-04-20T04:25:11.321Z,20.42
2017-04-20T04:26:10.419Z,18.25
2017-04-20T04:27:10.266Z,19.90
2017-04-20T04:28:09.346Z,19.55
2017-04-20T04:29:08.566Z,20.50
2017-04-20T04:30:07.689Z,18.57
2017-04-20T04:31:06.862Z,18.67
2017-04-20T04:32:06.702Z,19.22
2017-04-20T04:33:05.798Z,20.07
2017-04-20T04:34:04.882Z,21.22
2017-04-20T04:35:04.181Z,18.75
2017-04-20T04:36:03.368Z,18.52
2017-04-20T04:37:02.582Z,18.25
2017-04-20T04:38:01.661Z,20.45
2017-04-20T04:39:00.753Z,20.57
2017-04-20T04:39:59.869Z,18.57
2017-04-20T04:40:59.102Z,18.80
2017-04-20T04:41:58.191Z,18.50
2017-04-20T04:42:57.302Z,22.75
2017-04-20T04:43:56.413Z,23.88
2017-04-20T04:44:56.266Z,18.83
2017-04-20T04:45:55.370Z,19.48
2017-04-20T04:46:55.242Z,21.98
2017-04-20T04:47:54.354Z,21.67
2017-04-20T04:48:53.461Z,19.32
2017-04-20T04:49:52.605Z,20.02
2017-04-20T04:50:51.706Z,21.65
2017-04-20T04:51:50.801Z,22.18
2017-04-20T04:52:50.173Z,17.12
2017-04-20T04:53:49.279Z,18.87
2017-04-20T04:54:48.382Z,19.57
2017-04-20T04:55:47.485Z,23.03
2017-04-20T04:56:46.577Z,39.00
2017-04-20T04:57:45.710Z,24.38
2017-04-20T04:58:44.842Z,37.03
2017-04-20T04:59:43.942Z,30.83
2017-04-20T05:00:43.075Z,28.25
2017-04-20T05:01:42.165Z,27.48
2017-04-20T05:02:41.433Z,24.97
2017-04-20T05:03:40.639Z,27.63
2017-04-20T05:04:40.740Z,19.33
2017-04-20T05:05:40.510Z,25.95
2017-04-20T05:06:39.654Z,22.48
2017-04-20T05:07:39.206Z,23.80
2017-04-20T05:08:51.182Z,18.28
2017-04-20T05:10:03.774Z,20.98
2017-04-20T05:11:12.297Z,20.65
2017-04-20T05:12:11.589Z,20.20
2017-04-20T05:13:10.689Z,19.15
2017-04-20T05:14:09.814Z,22.50
2017-04-20T05:15:08.918Z,19.05
2017-04-20T05:16:08.757Z,18.45
2017-04-20T05:17:07.860Z,20.07
2017-04-20T05:18:06.954Z,19.02
2017-04-20T05:19:06.086Z,21.98
2017-04-20T05:20:05.193Z,21.13
2017-04-20T05:21:04.285Z,21.52
2017-04-20T05:22:03.411Z,20.98
2017-04-20T05:23:02.522Z,20.30
2017-04-20T05:24:02.366Z,25.05
2017-04-20T05:25:01.507Z,22.25
2017-04-20T05:26:01.364Z,27.30
2017-04-20T05:27:00.467Z,20.13
2017-04-20T05:27:59.565Z,19.25
2017-04-20T05:28:58.690Z,21.15
2017-04-20T05:29:57.789Z,22.42
2017-04-20T05:30:57.302Z,25.92
2017-04-20T05:31:56.442Z,26.92
2017-04-20T05:32:56.281Z,20.15
2017-04-20T05:33:55.381Z,24.25
2017-04-20T05:34:54.483Z,19.67
2017-04-20T05:35:53.577Z,22.17
2017-04-20T05:36:52.707Z,18.25
2017-04-20T05:37:51.825Z,17.23
2017-04-20T05:38:50.925Z,19.12
2017-04-20T05:39:50.023Z,19.70
2017-04-20T05:40:49.151Z,20.47
2017-04-20T05:41:48.267Z,20.25
2017-04-20T05:42:47.378Z,21.17
2017-04-20T05:43:46.478Z,20.68
2017-04-20T05:44:45.569Z,21.83
2017-04-20T05:45:45.442Z,23.40
2017-04-20T05:46:44.550Z,27.65
2017-04-20T05:47:43.745Z,25.27
2017-04-20T05:48:43.585Z,22.50
2017-04-20T05:49:42.687Z,19.88
2017-04-20T05:50:41.782Z,19.92
2017-04-20T05:51:40.959Z,24.25
2017-04-20T05:52:40.059Z,25.30
2017-04-20T05:53:39.165Z,23.18
2017-04-20T05:54:38.266Z,21.53
2017-04-20T05:55:37.365Z,22.67
2017-04-20T05:56:36.461Z,20.13
2017-04-20T05:57:35.577Z,23.02
2017-04-20T05:58:34.672Z,20.35
2017-04-20T05:59:34.021Z,26.43
2017-04-20T06:00:33.109Z,20.50
2017-04-20T06:01:32.425Z,26.50
2017-04-20T06:02:31.878Z,21.83
2017-04-20T06:03:32.166Z,22.27
2017-04-20T06:04:31.627Z,21.43
2017-04-20T06:05:31.639Z,21.02
2017-04-20T06:06:31.053Z,28.45
2017-04-20T06:07:30.720Z,20.70
2017-04-20T06:08:30.836Z,24.17
2017-04-20T06:09:30.246Z,24.62
2017-04-20T06:10:29.851Z,21.20
2017-04-20T06:11:29.582Z,22.23
2017-04-20T06:12:28.717Z,23.78
2017-04-20T06:13:27.894Z,20.98
2017-04-20T06:14:27.009Z,23.98
2017-04-20T06:15:26.162Z,22.82
2017-04-20T06:16:25.267Z,28.33
2017-04-20T06:17:24.370Z,22.00
2017-04-20T06:18:23.490Z,23.60
2017-04-20T06:19:22.586Z,21.13
2017-04-20T06:20:21.690Z,22.03
2017-04-20T06:21:20.821Z,19.53
2017-04-20T06:22:20.305Z,23.92
2017-04-20T06:23:19.418Z,21.50
2017-04-20T06:24:19.269Z,21.72
2017-04-20T06:25:18.773Z,26.80
2017-04-20T06:26:17.910Z,21.80
2017-04-20T06:27:17.010Z,19.18
2017-04-20T06:28:16.126Z,20.23
2017-04-20T06:29:15.231Z,24.30
2017-04-20T06:30:14.334Z,19.20
2017-04-20T06:31:13.526Z,19.48
2017-04-20T06:32:12.625Z,21.68
2017-04-20T06:33:12.468Z,19.90
2017-04-20T06:34:11.569Z,21.48
2017-04-20T06:35:10.809Z,19.20
2017-04-20T06:36:10.650Z,20.35
2017-04-20T06:37:09.790Z,19.18
2017-04-20T06:38:09.133Z,19.75
2017-04-20T06:39:08.242Z,22.30
2017-04-20T06:40:07.337Z,18.57
2017-04-20T06:41:06.450Z,17.98
2017-04-20T06:42:06.294Z,17.68
2017-04-20T06:43:05.440Z,19.02
2017-04-20T06:44:04.537Z,19.15
2017-04-20T06:45:03.650Z,19.45
2017-04-20T06:46:02.754Z,17.18
2017-04-20T06:47:01.858Z,20.77
2017-04-20T06:48:00.953Z,18.60
2017-04-20T06:49:00.918Z,18.82
2017-04-20T06:50:00.054Z,17.82
2017-04-20T06:50:59.149Z,20.72
2017-04-20T06:51:58.245Z,17.18
2017-04-20T06:52:57.345Z,16.92
2017-04-20T06:53:56.614Z,16.58
2017-04-20T06:54:55.750Z,15.43
2017-04-20T06:55:54.877Z,15.73
2017-04-20T06:56:53.982Z,15.45
2017-04-20T06:57:53.095Z,14.73
2017-04-20T06:58:52.238Z,11.82
2017-04-20T06:59:51.346Z,13.93
2017-04-20T07:00:50.485Z,15.87
2017-04-20T07:01:49.610Z,13.37
2017-04-20T07:02:55.041Z,13.25
2017-04-20T07:03:54.417Z,14.03
2017-04-20T07:04:53.545Z,13.50
2017-04-20T07:05:52.794Z,14.52
2017-04-20T07:06:52.681Z,14.82
2017-04-20T07:07:51.785Z,14.42
2017-04-20T07:08:51.650Z,12.73
2017-04-20T07:09:50.746Z,13.23
2017-04-20T07:10:50.158Z,13.87
2017-04-20T07:11:49.355Z,13.05
2017-04-20T07:12:49.217Z,15.98
2017-04-20T07:13:48.362Z,13.40
2017-04-20T07:14:47.549Z,14.53
2017-04-20T07:15:46.650Z,15.07
2017-04-20T07:16:45.741Z,13.97
2017-04-20T07:17:44.929Z,15.20
2017-04-20T07:18:44.034Z,14.33
2017-04-20T07:19:43.141Z,14.50
2017-04-20T07:20:42.262Z,14.82
2017-04-20T07:21:42.410Z,13.62
2017-04-20T07:22:41.622Z,14.72
2017-04-20T07:23:40.751Z,13.80
2017-04-20T07:24:39.850Z,12.30
2017-04-20T07:25:39.017Z,13.52
2017-04-20T07:26:38.182Z,13.38
2017-04-20T07:27:37.295Z,12.27
2017-04-20T07:28:36.483Z,12.25
2017-04-20T07:29:35.578Z,11.00
2017-04-20T07:30:35.596Z,9.62
2017-04-20T07:31:35.860Z,9.55
2017-04-20T07:32:36.152Z,11.43
2017-04-20T07:33:36.361Z,11.37
2017-04-20T07:34:36.413Z,9.50
2017-04-20T07:35:36.410Z,12.30
2017-04-20T07:36:36.121Z,10.10
2017-04-20T07:37:35.828Z,10.20
2017-04-20T07:38:35.770Z,10.43
2017-04-20T07:39:35.517Z,11.25
2017-04-20T07:40:35.248Z,9.80
2017-04-20T07:41:35.445Z,10.92
2017-04-20T07:42:34.990Z,10.17
2017-04-20T07:43:34.667Z,10.52
2017-04-20T07:44:35.005Z,10.60
2017-04-20T07:45:34.816Z,10.25
2017-04-20T07:46:34.600Z,10.53
2017-04-20T07:47:34.423Z,9.58
2017-04-20T07:48:35.034Z,11.08
2017-04-20T07:49:34.748Z,9.53
2017-04-20T07:50:34.723Z,10.60
2017-04-20T07:51:35.003Z,9.90
2017-04-20T07:52:34.825Z,9.15
2017-04-20T07:53:34.576Z,9.40
2017-04-20T07:54:34.235Z,10.10
2017-04-20T07:55:33.373Z,10.45
2017-04-20T07:56:32.530Z,10.67
2017-04-20T07:57:31.618Z,10.57
2017-04-20T07:58:30.717Z,10.62
2017-04-20T07:59:30.575Z,10.68
2017-04-20T08:00:29.661Z,9.37
2017-04-20T08:01:28.759Z,10.20
2017-04-20T08:02:30.410Z,10.47
2017-04-20T08:03:29.541Z,10.30
2017-04-20T08:04:29.378Z,11.82
2017-04-20T08:05:28.477Z,12.02
2017-04-20T08:06:27.578Z,13.35
2017-04-20T08:07:26.691Z,11.95
2017-04-20T08:08:25.921Z,13.85
2017-04-20T08:09:25.050Z,13.18
2017-04-20T08:10:24.173Z,11.93
2017-04-20T08:11:23.342Z,11.03
2017-04-20T08:12:22.478Z,12.65
2017-04-20T08:13:21.589Z,11.92
2017-04-20T08:14:20.966Z,11.48
2017-04-20T08:15:20.067Z,13.10
2017-04-20T08:16:19.167Z,12.38
2017-04-20T08:17:18.289Z,12.35
2017-04-20T08:18:17.389Z,13.33
2017-04-20T08:19:16.477Z,12.65
2017-04-20T08:20:15.621Z,13.35
2017-04-20T08:21:14.746Z,12.42
2017-04-20T08:22:13.842Z,13.07
2017-04-20T08:23:12.949Z,12.98
2017-04-20T08:24:12.058Z,13.52
2017-04-20T08:25:11.210Z,13.37
2017-04-20T08:26:11.384Z,12.72
2017-04-20T08:27:10.486Z,13.63
2017-04-20T08:28:09.606Z,13.95
2017-04-20T08:29:08.703Z,12.53
2017-04-20T08:30:08.596Z,13.80
2017-04-20T08:31:07.730Z,12.80
2017-04-20T08:32:06.885Z,12.72
2017-04-20T08:33:05.985Z,13.83
2017-04-20T08:34:05.129Z,13.27
2017-04-20T08:35:04.285Z,12.58
2017-04-20T08:36:03.397Z,12.87
2017-04-20T08:37:02.574Z,13.95
2017-04-20T08:38:01.705Z,13.23
2017-04-20T08:39:00.819Z,13.77
2017-04-20T08:39:59.931Z,12.72
2017-04-20T08:40:59.406Z,13.13
2017-04-20T08:41:59.518Z,12.43
2017-04-20T08:42:58.646Z,12.78
2017-04-20T08:43:57.746Z,12.85
2017-04-20T08:44:56.862Z,13.68
2017-04-20T08:45:56.714Z,13.53
2017-04-20T08:46:55.833Z,13.77
2017-04-20T08:47:54.954Z,13.98
2017-04-20T08:48:54.181Z,14.15
2017-04-20T08:49:53.282Z,14.23
2017-04-20T08:50:52.402Z,13.88
2017-04-20T08:51:52.275Z,13.38
2017-04-20T08:52:51.410Z,14.05
2017-04-20T08:53:51.301Z,14.13
2017-04-20T08:54:53.809Z,14.83
2017-04-20T08:55:52.914Z,14.10
2017-04-20T08:56:52.022Z,14.42
2017-04-20T08:57:51.130Z,14.28
2017-04-20T08:58:50.235Z,15.55
2017-04-20T08:59:49.507Z,16.10
2017-04-20T09:00:48.613Z,15.32
2017-04-20T09:01:47.722Z,14.25
2017-04-20T09:02:46.834Z,14.33
2017-04-20T09:03:46.246Z,14.88
2017-04-20T09:04:45.351Z,14.12
2017-04-20T09:05:44.490Z,15.88
2017-04-20T09:06:43.618Z,15.32
2017-04-20T09:07:42.729Z,15.37
2017-04-20T09:08:41.842Z,15.52
2017-04-20T09:09:41.025Z,16.02
2017-04-20T09:10:40.125Z,17.28
2017-04-20T09:11:39.243Z,17.33
2017-04-20T09:12:38.382Z,16.93
2017-04-20T09:13:37.493Z,17.48
2017-04-20T09:14:36.593Z,17.18
2017-04-20T09:15:36.450Z,17.40
2017-04-20T09:16:35.573Z,16.52
2017-04-20T09:17:35.422Z,16.23
2017-04-20T09:18:34.927Z,15.95
2017-04-20T09:19:34.039Z,15.72
2017-04-20T09:20:33.146Z,15.98
2017-04-20T09:21:32.998Z,15.45
2017-04-20T09:22:32.114Z,15.98
2017-04-20T09:23:31.217Z,15.23
2017-04-20T09:24:30.370Z,16.57
2017-04-20T09:25:29.484Z,16.13
2017-04-20T09:26:28.598Z,16.43
2017-04-20T09:27:27.706Z,16.68
2017-04-20T09:28:26.865Z,16.47
2017-04-20T09:29:25.970Z,16.27
2017-04-20T09:30:26.105Z,16.23
2017-04-20T09:31:25.252Z,16.52
2017-04-20T09:32:24.350Z,16.77
2017-04-20T09:33:24.199Z,16.08
2017-04-20T09:34:23.298Z,16.13
2017-04-20T09:35:22.422Z,15.13
2017-04-20T09:36:21.569Z,16.20
2017-04-20T09:37:20.674Z,15.70
2017-04-20T09:38:20.535Z,15.85
2017-04-20T09:39:19.657Z,15.43
2017-04-20T09:40:18.809Z,16.18
2017-04-20T09:41:17.933Z,17.27
2017-04-20T09:42:17.994Z,16.17
2017-04-20T09:43:17.090Z,15.47
2017-04-20T09:44:16.490Z,16.48
2017-04-20T09:45:15.615Z,16.57
2017-04-20T09:46:14.763Z,16.17
2017-04-20T09:47:13.877Z,16.35
2017-04-20T09:48:13.818Z,14.70
2017-04-20T09:49:12.931Z,15.58
2017-04-20T09:50:12.773Z,15.40
2017-04-20T09:51:11.909Z,16.30
2017-04-20T09:52:11.015Z,15.15
2017-04-20T09:53:10.861Z,15.45
2017-04-20T09:54:09.958Z,16.12
2017-04-20T09:55:09.058Z,15.95
2017-04-20T09:56:08.197Z,16.15
2017-04-20T09:57:07.305Z,16.45
2017-04-20T09:58:06.419Z,16.67
2017-04-20T09:59:05.518Z,17.22
2017-04-20T10:00:04.650Z,17.05
2017-04-20T10:01:03.829Z,16.87
2017-04-20T10:02:02.965Z,15.98
2017-04-20T10:03:02.202Z,17.20
2017-04-20T10:04:01.306Z,17.87
2017-04-20T10:05:00.410Z,16.78
2017-04-20T10:05:59.505Z,17.45
2017-04-20T10:06:58.610Z,17.95
2017-04-20T10:07:57.726Z,17.35
2017-04-20T10:08:56.976Z,17.22
2017-04-20T10:09:56.093Z,18.00
2017-04-20T10:10:55.186Z,17.05
2017-04-20T10:11:54.294Z,18.62
2017-04-20T10:12:53.406Z,17.72
2017-04-20T10:13:52.513Z,18.50
2017-04-20T10:14:51.661Z,17.67
2017-04-20T10:15:50.777Z,15.62
2017-04-20T10:16:49.939Z,15.57
2017-04-20T10:17:49.329Z,16.40
2017-04-20T10:18:48.432Z,16.95
2017-04-20T10:19:47.534Z,18.03
2017-04-20T10:20:46.713Z,17.92
2017-04-20T10:21:45.837Z,16.82
2017-04-20T10:22:44.977Z,17.33
2017-04-20T10:23:44.082Z,17.13
2017-04-20T10:24:43.238Z,17.20
2017-04-20T10:25:42.340Z,18.32
2017-04-20T10:26:41.938Z,16.05
2017-04-20T10:27:41.046Z,16.80
2017-04-20T10:28:40.150Z,16.77
2017-04-20T10:29:39.259Z,17.48
2017-04-20T10:30:39.134Z,17.22
2017-04-20T10:31:38.247Z,16.82
2017-04-20T10:32:37.385Z,16.83
2017-04-20T10:33:36.597Z,17.55
2017-04-20T10:34:35.718Z,18.42
2017-04-20T10:35:35.579Z,18.55
2017-04-20T10:36:34.867Z,18.65
2017-04-20T10:37:34.706Z,17.05
2017-04-20T10:38:33.805Z,16.73
2017-04-20T10:39:32.902Z,17.35
2017-04-20T10:40:32.002Z,17.13
2017-04-20T10:41:31.101Z,18.30
2017-04-20T10:42:30.464Z,17.65
2017-04-20T10:43:29.565Z,16.88
2017-04-20T10:44:28.674Z,16.35
2017-04-20T10:45:27.778Z,16.13
2017-04-20T10:46:27.054Z,17.40
2017-04-20T10:47:26.158Z,18.12
2017-04-20T10:48:25.298Z,16.35
2017-04-20T10:49:25.150Z,16.48
2017-04-20T10:50:24.262Z,16.15
2017-04-20T10:51:23.358Z,17.33
2017-04-20T10:52:22.486Z,16.67
2017-04-20T10:53:21.589Z,17.90
2017-04-20T10:54:20.693Z,17.32
2017-04-20T10:55:19.846Z,17.47
2017-04-20T10:56:19.690Z,17.02
2017-04-20T10:57:18.866Z,17.17
2017-04-20T10:58:17.969Z,18.53
2017-04-20T10:59:17.074Z,16.67
2017-04-20T11:00:16.181Z,16.22
2017-04-20T11:01:16.054Z,16.32
2017-04-20T11:02:15.241Z,15.82
2017-04-20T11:03:14.431Z,16.48
2017-04-20T11:04:13.533Z,16.72
2017-04-20T11:05:12.626Z,16.28
2017-04-20T11:06:11.729Z,17.35
2017-04-20T11:07:11.570Z,15.98
2017-04-20T11:08:10.666Z,17.07
2017-04-20T11:09:09.798Z,14.73
2017-04-20T11:10:09.641Z,15.90
2017-04-20T11:11:08.750Z,14.82
2017-04-20T11:12:07.857Z,14.78
2017-04-20T11:13:06.970Z,15.52
2017-04-20T11:14:06.082Z,13.53
2017-04-20T11:15:05.230Z,15.12
2017-04-20T11:16:05.078Z,15.98
2017-04-20T11:17:04.191Z,14.88
2017-04-20T11:18:03.293Z,15.62
2017-04-20T11:19:02.397Z,12.75
2017-04-20T11:20:02.274Z,14.50
2017-04-20T11:21:01.379Z,14.53
2017-04-20T11:22:01.249Z,15.47
2017-04-20T11:23:00.350Z,15.40
2017-04-20T11:23:59.454Z,13.48
2017-04-20T11:24:59.309Z,13.92
2017-04-20T11:25:58.453Z,13.47
2017-04-20T11:26:58.301Z,14.35
2017-04-20T11:27:57.418Z,14.12
2017-04-20T11:28:56.529Z,14.38
2017-04-20T11:29:56.377Z,14.27
2017-04-20T11:30:55.481Z,13.93
2017-04-20T11:31:54.714Z,13.27
2017-04-20T11:32:53.838Z,15.05
2017-04-20T11:33:53.690Z,15.62
2017-04-20T11:34:52.818Z,15.08
2017-04-20T11:35:51.926Z,15.00
2017-04-20T11:36:51.026Z,13.87
2017-04-20T11:37:50.166Z,15.63
2017-04-20T11:38:49.278Z,14.02
2017-04-20T11:39:48.430Z,14.82
2017-04-20T11:40:47.545Z,15.15
2017-04-20T11:41:46.654Z,13.48
2017-04-20T11:42:45.769Z,14.22
2017-04-20T11:43:45.705Z,14.52
2017-04-20T11:44:44.809Z,14.45
2017-04-20T11:45:43.910Z,13.38
2017-04-20T11:46:43.014Z,14.53
2017-04-20T11:47:42.143Z,15.30
2017-04-20T11:48:41.254Z,14.48
2017-04-20T11:49:40.498Z,15.55
2017-04-20T11:50:40.350Z,15.48
2017-04-20T11:51:39.490Z,14.87
2017-04-20T11:52:38.598Z,16.12
2017-04-20T11:53:37.705Z,16.63
2017-04-20T11:54:36.806Z,15.92
2017-04-20T11:55:35.967Z,15.37
2017-04-20T11:56:35.082Z,16.20
2017-04-20T11:57:34.229Z,15.37
2017-04-20T11:58:33.350Z,15.25
2017-04-20T11:59:32.486Z,16.65
2017-04-20T12:00:31.605Z,14.55
2017-04-20T12:01:30.774Z,15.23
2017-04-20T12:02:29.880Z,15.48
2017-04-20T12:03:29.334Z,16.15
2017-04-20T12:04:28.438Z,15.12
2017-04-20T12:05:27.553Z,15.15
2017-04-20T12:06:26.671Z,15.38
2017-04-20T12:07:26.572Z,16.93
2017-04-20T12:08:25.690Z,14.88
2017-04-20T12:09:24.830Z,15.30
2017-04-20T12:10:23.947Z,16.02
2017-04-20T12:11:23.058Z,16.30
2017-04-20T12:12:22.174Z,16.88
2017-04-20T12:13:21.300Z,15.13
2017-04-20T12:14:20.451Z,15.83
2017-04-20T12:15:19.583Z,15.57
2017-04-20T12:16:18.694Z,16.20
2017-04-20T12:17:17.847Z,15.93
2017-04-20T12:18:17.710Z,15.77
2017-04-20T12:19:16.809Z,16.62
2017-04-20T12:20:15.990Z,16.43
2017-04-20T12:21:15.089Z,16.85
2017-04-20T12:22:14.194Z,16.45
2017-04-20T12:23:14.073Z,15.73
2017-04-20T12:24:13.182Z,15.90
2017-04-20T12:25:13.030Z,16.03
2017-04-20T12:26:12.182Z,14.65
2017-04-20T12:27:12.029Z,15.52
2017-04-20T12:28:11.130Z,15.62
2017-04-20T12:29:10.241Z,16.33
2017-04-20T12:30:09.334Z,16.32
2017-04-20T12:31:08.438Z,15.65
2017-04-20T12:32:07.672Z,16.90
2017-04-20T12:33:06.826Z,16.30
2017-04-20T12:34:05.933Z,17.63
2017-04-20T12:35:05.038Z,16.27
2017-04-20T12:36:04.881Z,16.35
2017-04-20T12:37:04.009Z,15.28
2017-04-20T12:38:03.934Z,17.45
2017-04-20T12:39:03.101Z,16.92
2017-04-20T12:40:02.202Z,21.48
2017-04-20T12:41:01.309Z,17.22
2017-04-20T12:42:00.627Z,15.87
2017-04-20T12:42:59.909Z,16.60
2017-04-20T12:43:59.034Z,17.72
2017-04-20T12:44:58.475Z,17.30
2017-04-20T12:45:57.588Z,16.57
2017-04-20T12:46:56.719Z,18.17